Time;durP1;ratioP1;P1;durP2;ratioP2;P2;SDS_P1;SDS_P2;PMS_P1;PMS_P2;Temp;Humidity;BMP_temperature;BMP_pressure;BME280_temperature;BME280_humidity;BME280_pressure;Samples;Min_cycle;Max_cycle;Signal;HPM_P1;HPM_P2
2021/12/31 00:00:23;;;;;;;12.07;2.53;;;;;;;13.19;100.00;101280.94;10411018;28;20584;-66
2021/12/31 00:05:45;;;;;;;11.50;2.55;;;;;;;13.20;100.00;101284.38;10392703;28;20053;-65
2021/12/31 00:11:06;;;;;;;12.98;2.55;;;;;;;13.27;100.00;101296.94;10357327;28;20050;-65
2021/12/31 00:16:28;;;;;;;16.40;2.65;;;;;;;13.25;100.00;101282.28;10368601;28;20048;-65
2021/12/31 00:21:51;;;;;;;19.67;3.22;;;;;;;13.23;100.00;101303.34;10391774;28;20056;-65
2021/12/31 00:27:13;;;;;;;9.20;2.33;;;;;;;13.26;100.00;101310.97;10390036;28;20045;-64
2021/12/31 00:32:34;;;;;;;9.63;2.30;;;;;;;13.22;100.00;101288.59;10434779;28;20505;-65
2021/12/31 00:37:56;;;;;;;10.93;2.85;;;;;;;13.23;100.00;101287.66;10371692;28;20402;-65
2021/12/31 00:43:18;;;;;;;11.88;2.25;;;;;;;13.15;100.00;101287.31;10408975;28;20060;-65
2021/12/31 00:48:40;;;;;;;10.63;2.58;;;;;;;13.20;100.00;101285.22;10355396;28;20046;-65
2021/12/31 00:54:01;;;;;;;6.47;2.47;;;;;;;13.23;100.00;101290.25;10354029;28;20057;-65
2021/12/31 00:59:23;;;;;;;15.52;2.97;;;;;;;13.18;100.00;101271.41;10416945;28;20059;-65
2021/12/31 01:04:45;;;;;;;11.30;2.67;;;;;;;13.22;100.00;101270.25;10407597;28;20049;-65
2021/12/31 01:10:12;;;;;;;10.48;2.88;;;;;;;13.26;100.00;101279.56;10379162;28;20050;-65
2021/12/31 01:15:37;;;;;;;9.50;2.95;;;;;;;13.31;100.00;101277.47;10392227;28;20050;-65
2021/12/31 01:20:59;;;;;;;9.38;2.50;;;;;;;13.26;100.00;101291.81;10364297;28;20556;-65
2021/12/31 01:26:21;;;;;;;11.25;2.60;;;;;;;13.26;100.00;101289.19;10415633;28;20060;-66
2021/12/31 01:31:42;;;;;;;13.30;2.65;;;;;;;13.31;100.00;101298.41;10426766;28;20057;-65
2021/12/31 01:37:05;;;;;;;13.68;2.53;;;;;;;13.33;100.00;101301.78;10356959;28;20053;-65
2021/12/31 01:42:31;;;;;;;11.07;2.50;;;;;;;13.37;100.00;101308.47;10376746;28;20049;-65
2021/12/31 01:53:14;;;;;;;11.70;2.17;;;;;;;13.41;100.00;101315.16;10362405;28;20072;-66
2021/12/31 01:58:36;;;;;;;5.43;1.90;;;;;;;13.37;100.00;101318.97;10387477;28;20045;-66
2021/12/31 02:03:59;;;;;;;13.10;2.60;;;;;;;13.45;100.00;101321.88;10403319;28;20525;-65
2021/12/31 02:09:22;;;;;;;11.82;2.45;;;;;;;13.42;100.00;101321.25;10400229;28;20421;-65
2021/12/31 02:14:45;;;;;;;9.98;1.98;;;;;;;13.45;100.00;101314.03;10366774;28;20046;-66
2021/12/31 02:20:07;;;;;;;12.27;2.45;;;;;;;13.39;100.00;101317.03;10401648;28;20056;-66
2021/12/31 02:25:31;;;;;;;10.60;2.25;;;;;;;13.46;100.00;101319.16;10434622;28;20076;-66
2021/12/31 02:30:54;;;;;;;13.65;2.10;;;;;;;13.48;100.00;101311.19;10419310;28;20061;-66
2021/12/31 02:36:17;;;;;;;10.82;2.20;;;;;;;13.51;100.00;101300.53;10360889;28;20041;-65
2021/12/31 02:41:38;;;;;;;10.15;2.40;;;;;;;13.53;100.00;101306.50;10383850;28;20045;-65
2021/12/31 02:47:05;;;;;;;14.00;2.53;;;;;;;13.48;100.00;101305.97;10427180;28;20076;-66
2021/12/31 02:52:26;;;;;;;11.32;2.20;;;;;;;13.57;100.00;101302.69;10405175;28;20060;-65
2021/12/31 02:57:48;;;;;;;13.77;2.70;;;;;;;13.49;100.00;101302.41;10398439;28;20038;-65
2021/12/31 03:03:12;;;;;;;11.50;2.40;;;;;;;13.54;100.00;101295.03;10429114;28;20077;-66
2021/12/31 03:08:37;;;;;;;11.27;2.33;;;;;;;13.47;100.00;101283.31;10407047;28;20053;-65
2021/12/31 03:13:59;;;;;;;10.80;2.10;;;;;;;13.47;100.00;101281.53;10413454;28;20057;-66
2021/12/31 03:19:21;;;;;;;11.23;2.00;;;;;;;13.49;100.00;101281.44;10422514;28;20136;-65
2021/12/31 03:24:43;;;;;;;9.00;2.25;;;;;;;13.50;100.00;101290.97;10417291;28;20056;-65
2021/12/31 03:30:10;;;;;;;9.32;2.45;;;;;;;13.53;100.00;101283.75;10358823;28;20049;-66
2021/12/31 03:35:31;;;;;;;17.35;2.65;;;;;;;13.54;100.00;101290.66;10366588;28;20061;-66
2021/12/31 03:40:53;;;;;;;12.90;2.35;;;;;;;13.52;100.00;101278.63;10358570;28;20532;-66
2021/12/31 03:46:15;;;;;;;7.38;2.40;;;;;;;13.62;100.00;101269.16;10344934;28;20054;-66
2021/12/31 03:51:37;;;;;;;10.48;2.90;;;;;;;13.56;100.00;101261.72;10365421;28;20085;-66
2021/12/31 03:56:59;;;;;;;8.43;2.50;;;;;;;13.56;100.00;101259.09;10421384;28;20059;-66
2021/12/31 04:02:21;;;;;;;6.45;2.53;;;;;;;13.62;100.00;101256.06;10422933;28;20064;-65
2021/12/31 04:07:43;;;;;;;9.02;3.00;;;;;;;13.63;100.00;101244.66;10415443;28;20068;-65
2021/12/31 04:13:04;;;;;;;10.18;2.60;;;;;;;13.63;100.00;101255.13;10436322;28;20071;-67
2021/12/31 04:18:26;;;;;;;11.57;2.45;;;;;;;13.69;100.00;101254.69;10438807;28;20041;-66
2021/12/31 04:23:52;;;;;;;10.32;2.78;;;;;;;13.82;100.00;101255.50;10372588;28;20060;-65
2021/12/31 04:29:13;;;;;;;11.05;3.00;;;;;;;13.83;100.00;101254.53;10356749;28;20069;-65
2021/12/31 04:34:35;;;;;;;5.18;2.65;;;;;;;13.81;100.00;101240.72;10437872;28;20052;-67
2021/12/31 04:39:57;;;;;;;6.90;2.80;;;;;;;13.79;100.00;101240.00;10390270;28;20057;-66
2021/12/31 04:45:18;;;;;;;7.18;2.75;;;;;;;13.86;100.00;101252.56;10386081;28;20054;-65
2021/12/31 04:50:40;;;;;;;9.40;2.55;;;;;;;13.89;99.98;101254.13;10388533;28;20056;-66
2021/12/31 04:56:03;;;;;;;8.52;3.10;;;;;;;13.91;99.61;101265.31;10391845;28;20058;-67
2021/12/31 05:01:24;;;;;;;10.02;3.05;;;;;;;13.88;99.98;101252.44;10403225;28;20069;-66
2021/12/31 05:06:49;;;;;;;8.98;2.80;;;;;;;13.81;100.00;101230.25;10424276;28;20068;-66
2021/12/31 05:12:15;;;;;;;7.50;2.60;;;;;;;13.86;100.00;101228.13;10428002;28;20069;-66
2021/12/31 05:17:37;;;;;;;4.53;2.47;;;;;;;13.94;99.13;101234.50;10395552;28;20049;-66
2021/12/31 05:23:00;;;;;;;8.63;3.28;;;;;;;13.97;98.68;101246.56;10383951;28;20495;-66
2021/12/31 05:28:22;;;;;;;6.53;2.65;;;;;;;13.95;99.20;101258.94;10372214;28;20057;-66
2021/12/31 05:33:44;;;;;;;7.47;2.47;;;;;;;13.99;98.26;101234.16;10370975;28;20383;-66
2021/12/31 05:39:05;;;;;;;4.00;2.05;;;;;;;13.97;98.46;101252.63;10363254;28;20046;-66
2021/12/31 05:44:27;;;;;;;6.28;2.47;;;;;;;13.99;98.45;101234.16;10362984;28;20061;-66
2021/12/31 05:49:50;;;;;;;9.65;2.50;;;;;;;13.98;98.79;101232.47;10381395;28;20489;-66
2021/12/31 05:55:12;;;;;;;5.82;2.40;;;;;;;14.03;97.96;101198.91;10444459;28;20064;-65
2021/12/31 06:00:34;;;;;;;4.57;2.40;;;;;;;13.97;98.25;101192.34;10412361;28;20049;-65
2021/12/31 06:05:59;;;;;;;4.07;2.67;;;;;;;13.88;99.35;101194.78;10424120;28;20049;-66
2021/12/31 06:11:21;;;;;;;8.77;2.20;;;;;;;13.85;100.00;101176.66;10400311;28;20053;-66
2021/12/31 06:16:45;;;;;;;4.90;2.75;;;;;;;13.87;99.43;101193.09;10361683;28;20061;-66
2021/12/31 06:22:06;;;;;;;7.80;3.15;;;;;;;13.87;99.93;101198.34;10348923;28;20069;-67
2021/12/31 06:27:28;;;;;;;5.90;2.70;;;;;;;13.91;99.33;101202.44;10374800;28;20057;-66
2021/12/31 06:32:50;;;;;;;6.13;2.75;;;;;;;13.86;99.54;101199.28;10360323;28;20068;-66
2021/12/31 06:38:11;;;;;;;4.03;2.72;;;;;;;13.82;100.00;101174.28;10384066;28;20111;-66
2021/12/31 06:43:33;;;;;;;4.47;2.50;;;;;;;13.86;99.83;101192.28;10401210;28;20143;-68
2021/12/31 06:48:55;;;;;;;8.63;2.97;;;;;;;13.86;99.90;101207.16;10364289;28;20046;-67
2021/12/31 06:54:17;;;;;;;6.60;2.65;;;;;;;13.85;99.68;101218.56;10420872;28;20057;-66
2021/12/31 06:59:39;;;;;;;5.72;2.60;;;;;;;13.84;99.15;101209.91;10382540;28;20052;-67
2021/12/31 07:05:01;;;;;;;6.25;2.60;;;;;;;13.80;99.60;101207.59;10412229;28;20063;-66
2021/12/31 07:10:23;;;;;;;5.47;2.30;;;;;;;13.85;99.12;101189.75;10386488;28;20054;-66
2021/12/31 07:15:48;;;;;;;4.22;2.20;;;;;;;13.85;98.64;101202.84;10373258;28;20057;-66
2021/12/31 07:21:10;;;;;;;5.50;2.20;;;;;;;13.90;97.91;101203.38;10358618;28;20041;-65
2021/12/31 07:26:31;;;;;;;4.93;1.88;;;;;;;13.92;97.64;101217.22;10358694;28;20071;-67
2021/12/31 07:31:53;;;;;;;5.88;1.98;;;;;;;13.93;97.62;101218.88;10358635;28;20061;-66
2021/12/31 07:37:15;;;;;;;4.20;1.80;;;;;;;13.90;97.25;101209.44;10413205;28;20377;-66
2021/12/31 07:42:36;;;;;;;4.75;2.20;;;;;;;14.04;95.77;101211.06;10381573;28;20498;-67
2021/12/31 07:47:59;;;;;;;3.85;1.85;;;;;;;13.96;96.21;101202.94;10391235;28;20054;-67
2021/12/31 07:53:21;;;;;;;4.82;1.77;;;;;;;14.03;95.03;101191.03;10376509;28;20054;-69
2021/12/31 07:58:43;;;;;;;3.70;2.03;;;;;;;14.06;94.50;101203.94;10359032;28;20418;-71
2021/12/31 08:04:04;;;;;;;4.25;1.80;;;;;;;14.02;94.74;101212.97;10347811;28;20056;-68
2021/12/31 08:09:26;;;;;;;5.13;2.03;;;;;;;14.00;94.90;101215.72;10377530;28;20041;-67
2021/12/31 08:14:48;;;;;;;5.00;1.75;;;;;;;14.00;94.67;101217.47;10378642;28;20050;-66
2021/12/31 08:20:12;;;;;;;4.20;1.70;;;;;;;13.98;94.22;101201.03;10392246;28;20076;-67
2021/12/31 08:25:33;;;;;;;4.68;1.70;;;;;;;14.05;93.28;101212.75;10395232;28;20046;-66
2021/12/31 08:30:55;;;;;;;7.32;2.00;;;;;;;14.14;91.65;101225.22;10394744;28;20049;-68
2021/12/31 08:36:17;;;;;;;4.20;1.90;;;;;;;14.07;92.84;101234.44;10390274;28;20045;-67
2021/12/31 08:41:40;;;;;;;3.58;1.65;;;;;;;14.02;92.70;101234.78;10378029;28;20049;-67
2021/12/31 08:47:09;;;;;;;5.00;1.92;;;;;;;14.08;92.27;101238.75;10389002;28;20052;-67
2021/12/31 08:52:31;;;;;;;4.30;2.10;;;;;;;14.03;92.85;101259.19;10362556;28;20057;-65
2021/12/31 08:57:52;;;;;;;3.33;1.70;;;;;;;13.96;93.18;101266.66;10365938;28;20046;-65
2021/12/31 09:03:14;;;;;;;4.70;2.10;;;;;;;13.92;93.43;101253.91;10362512;28;20489;-66
2021/12/31 09:08:38;;;;;;;5.07;2.00;;;;;;;13.97;93.00;101243.94;10358616;28;20159;-67
2021/12/31 09:14:00;;;;;;;3.05;2.00;;;;;;;14.01;92.60;101248.00;10395985;28;20065;-65
2021/12/31 09:19:21;;;;;;;5.53;1.80;;;;;;;13.96;92.91;101237.84;10360026;28;20569;-65
2021/12/31 09:24:43;;;;;;;5.28;2.00;;;;;;;13.93;92.88;101234.59;10395359;28;20054;-65
2021/12/31 09:30:05;;;;;;;5.10;2.00;;;;;;;13.89;93.36;101244.47;10354714;28;20049;-66
2021/12/31 09:35:27;;;;;;;6.32;2.10;;;;;;;13.88;93.23;101242.81;10387642;28;20405;-72
2021/12/31 09:40:49;;;;;;;3.92;2.13;;;;;;;13.83;93.70;101254.53;10379546;28;20049;-66
2021/12/31 09:46:11;;;;;;;4.80;2.05;;;;;;;13.90;93.06;101245.31;10365978;28;20049;-66
2021/12/31 09:51:33;;;;;;;7.90;2.00;;;;;;;13.87;93.08;101261.25;10360158;28;20454;-65
2021/12/31 09:56:56;;;;;;;3.45;2.00;;;;;;;13.88;93.03;101273.41;10364881;28;20053;-66
2021/12/31 10:02:31;;;;;;;5.20;1.80;;;;;;;13.89;93.45;101285.56;10388531;28;20049;-65
2021/12/31 10:07:53;;;;;;;6.07;2.10;;;;;;;13.89;93.74;101280.31;10412496;28;20045;-62
2021/12/31 10:13:16;;;;;;;5.03;2.03;;;;;;;13.93;93.21;101282.63;10443878;28;20053;-61
2021/12/31 10:18:39;;;;;;;4.47;2.05;;;;;;;13.86;93.77;101285.78;10364181;28;20053;-63
2021/12/31 10:24:21;;;;;;;2.42;1.80;;;;;;;13.86;93.51;101276.16;10378550;28;20054;-63
2021/12/31 10:30:10;;;;;;;3.70;1.90;;;;;;;13.91;92.62;101267.94;10401757;28;20049;-64
2021/12/31 10:35:42;;;;;;;6.97;2.10;;;;;;;13.92;92.51;101270.44;10396721;28;20516;-63
2021/12/31 10:41:05;;;;;;;3.00;1.95;;;;;;;13.90;92.75;101271.50;10387670;28;20055;-63
2021/12/31 10:46:29;;;;;;;8.73;2.40;;;;;;;13.79;93.67;101274.88;10393834;28;20064;-63
2021/12/31 10:51:51;;;;;;;5.20;2.40;;;;;;;13.82;93.34;101264.19;10425794;28;20559;-63
2021/12/31 10:57:36;;;;;;;7.45;2.33;;;;;;;13.85;92.92;101273.63;10362024;28;20042;-63
2021/12/31 11:02:59;;;;;;;4.97;2.00;;;;;;;13.80;93.36;101271.31;10394476;28;20053;-63
2021/12/31 11:08:21;;;;;;;6.47;2.20;;;;;;;13.79;93.65;101258.34;10393107;28;20053;-63
2021/12/31 11:13:47;;;;;;;6.45;2.20;;;;;;;13.81;93.07;101251.22;10387946;28;20045;-63
2021/12/31 11:19:15;;;;;;;5.32;2.08;;;;;;;13.75;93.54;101252.47;10389733;28;20052;-63
2021/12/31 11:24:38;;;;;;;6.47;2.15;;;;;;;13.86;92.53;101264.81;10383419;28;20045;-63
2021/12/31 11:30:01;;;;;;;6.13;2.40;;;;;;;13.79;92.65;101277.50;10358995;28;20073;-63
2021/12/31 11:36:01;;;;;;;5.85;2.38;;;;;;;13.75;93.09;101257.69;10358250;28;20058;-63
2021/12/31 11:41:23;;;;;;;4.90;2.25;;;;;;;13.70;93.29;101248.50;10356752;28;20046;-63
2021/12/31 11:46:47;;;;;;;4.90;2.55;;;;;;;13.79;92.79;101237.38;10357418;28;20049;-63
2021/12/31 11:52:13;;;;;;;5.72;2.50;;;;;;;13.76;92.65;101253.31;10388154;28;20065;-62
2021/12/31 11:57:39;;;;;;;5.85;2.47;;;;;;;13.77;92.84;101228.78;10399859;28;20082;-62
2021/12/31 12:03:30;;;;;;;4.80;2.65;;;;;;;13.80;92.84;101216.28;10365343;28;20049;-63
2021/12/31 12:08:53;;;;;;;5.22;2.70;;;;;;;13.87;92.35;101208.81;10396211;28;20060;-63
2021/12/31 12:14:45;;;;;;;7.25;3.13;;;;;;;13.87;92.44;101178.22;10383629;28;20053;-67
2021/12/31 12:20:13;;;;;;;6.70;2.85;;;;;;;13.85;93.26;101159.16;10377276;28;20061;-64
2021/12/31 12:25:34;;;;;;;7.70;3.28;;;;;;;13.76;95.65;101165.03;10356582;28;20064;-64
2021/12/31 12:31:05;;;;;;;5.72;3.13;;;;;;;13.68;96.45;101166.56;10356062;28;20502;-64
2021/12/31 12:36:26;;;;;;;8.93;3.33;;;;;;;13.64;97.04;101149.38;10355985;28;20145;-65
2021/12/31 12:41:50;;;;;;;8.05;2.97;;;;;;;13.61;98.07;101160.09;10355379;28;20046;-64
2021/12/31 12:47:11;;;;;;;9.43;3.47;;;;;;;13.55;98.13;101157.88;10368668;28;20068;-65
2021/12/31 12:52:33;;;;;;;7.65;2.75;;;;;;;13.56;97.62;101156.94;10428228;28;20057;-65
2021/12/31 12:57:58;;;;;;;9.70;3.17;;;;;;;13.55;97.67;101152.66;10395954;28;20133;-64
2021/12/31 13:03:20;;;;;;;7.38;3.05;;;;;;;13.62;96.69;101159.13;10408875;28;20474;-64
2021/12/31 13:08:42;;;;;;;6.60;3.28;;;;;;;13.59;97.47;101173.31;10408730;28;20075;-65
2021/12/31 13:14:11;;;;;;;7.40;3.55;;;;;;;13.37;100.00;101177.56;10370150;28;20074;-65
2021/12/31 13:19:36;;;;;;;6.65;3.50;;;;;;;13.18;100.00;101177.16;10375387;28;20057;-66
2021/12/31 13:24:57;;;;;;;12.80;4.18;;;;;;;13.12;100.00;101181.97;10365890;28;20654;-65
2021/12/31 13:30:19;;;;;;;8.23;4.57;;;;;;;12.99;100.00;101181.97;10355481;28;20049;-64
2021/12/31 13:35:41;;;;;;;8.55;4.55;;;;;;;12.95;100.00;101184.91;10355167;28;20081;-65
2021/12/31 13:41:05;;;;;;;10.13;4.47;;;;;;;12.89;100.00;101194.03;10353686;28;20049;-65
2021/12/31 13:46:42;;;;;;;9.93;4.63;;;;;;;12.90;100.00;101193.09;10370625;28;20045;-65
2021/12/31 13:52:17;;;;;;;8.95;4.43;;;;;;;12.86;100.00;101209.88;10385233;28;20057;-65
2021/12/31 13:57:51;;;;;;;12.63;4.90;;;;;;;12.81;100.00;101204.13;10366923;28;20057;-65
2021/12/31 14:03:28;;;;;;;10.82;4.72;;;;;;;12.78;100.00;101219.19;10384923;28;20129;-65
2021/12/31 14:08:50;;;;;;;9.80;4.80;;;;;;;12.78;100.00;101214.81;10372207;28;20103;-65
2021/12/31 14:14:15;;;;;;;11.60;4.65;;;;;;;12.75;100.00;101232.47;10371613;28;20053;-66
2021/12/31 14:19:42;;;;;;;9.02;4.68;;;;;;;12.74;100.00;101233.41;10380294;28;20046;-65
2021/12/31 14:25:05;;;;;;;10.27;5.32;;;;;;;12.70;100.00;101250.28;10395891;28;20076;-65
2021/12/31 14:30:29;;;;;;;11.50;5.13;;;;;;;12.67;100.00;101242.63;10402417;28;20049;-65
2021/12/31 14:35:53;;;;;;;8.07;5.35;;;;;;;12.57;100.00;101252.84;10386979;28;20061;-65
2021/12/31 14:41:21;;;;;;;6.82;4.90;;;;;;;12.53;100.00;101250.56;10363668;28;20052;-64
2021/12/31 14:46:44;;;;;;;9.65;5.55;;;;;;;12.55;100.00;101259.97;10372884;28;20462;-65
2021/12/31 14:52:06;;;;;;;6.45;4.88;;;;;;;12.53;100.00;101256.59;10382696;28;20045;-65
2021/12/31 14:57:28;;;;;;;9.25;5.32;;;;;;;12.54;100.00;101262.69;10366526;28;20047;-65
2021/12/31 15:02:54;;;;;;;10.55;4.70;;;;;;;12.52;100.00;101257.53;10358721;28;20108;-64
2021/12/31 15:08:16;;;;;;;5.45;4.03;;;;;;;12.53;100.00;101272.28;10374304;28;20278;-65
2021/12/31 15:13:37;;;;;;;7.63;3.97;;;;;;;12.52;100.00;101283.69;10373438;28;20050;-63
2021/12/31 15:19:00;;;;;;;5.25;3.38;;;;;;;12.51;100.00;101284.66;10380299;28;20053;-64
2021/12/31 15:24:24;;;;;;;4.35;3.38;;;;;;;12.52;100.00;101286.31;10396112;28;20064;-64
2021/12/31 15:29:49;;;;;;;5.07;3.58;;;;;;;12.51;100.00;101309.94;10397541;28;20049;-64
2021/12/31 15:35:10;;;;;;;6.87;3.87;;;;;;;12.47;100.00;101323.34;10392967;28;20053;-64
2021/12/31 15:40:33;;;;;;;6.95;3.88;;;;;;;12.51;100.00;101326.50;10378014;28;20042;-63
2021/12/31 15:45:55;;;;;;;5.88;3.33;;;;;;;12.53;100.00;101331.63;10367960;28;20053;-65
2021/12/31 15:51:16;;;;;;;7.88;3.83;;;;;;;12.50;100.00;101332.66;10383153;28;20053;-64
2021/12/31 15:56:38;;;;;;;13.40;5.20;;;;;;;12.42;100.00;101330.63;10366224;28;20050;-63
2021/12/31 16:02:02;;;;;;;9.48;4.22;;;;;;;12.44;100.00;101336.59;10378700;28;20368;-64
2021/12/31 16:07:24;;;;;;;8.70;5.00;;;;;;;12.47;100.00;101344.25;10380751;28;20059;-65
2021/12/31 16:12:50;;;;;;;13.43;4.88;;;;;;;12.46;100.00;101345.19;10399363;28;20053;-63
2021/12/31 16:18:11;;;;;;;13.77;5.25;;;;;;;12.53;100.00;101358.59;10407649;28;20443;-64
2021/12/31 16:23:33;;;;;;;12.93;4.90;;;;;;;12.53;100.00;101382.13;10327002;28;1189993;-64
2021/12/31 16:28:55;;;;;;;11.55;5.13;;;;;;;12.59;100.00;101359.97;10368435;28;20057;-63
2021/12/31 16:34:16;;;;;;;11.10;4.53;;;;;;;12.61;100.00;101379.88;10377666;28;20391;-65
2021/12/31 16:39:42;;;;;;;15.77;5.00;;;;;;;12.62;100.00;101385.94;10362985;28;20622;-63
2021/12/31 16:45:04;;;;;;;13.55;4.63;;;;;;;12.64;100.00;101405.84;10379925;28;20054;-63
2021/12/31 16:50:26;;;;;;;13.93;5.18;;;;;;;12.65;100.00;101415.38;10359532;28;20128;-64
2021/12/31 16:55:48;;;;;;;9.27;4.57;;;;;;;12.58;100.00;101414.06;10386735;28;20060;-64
2021/12/31 17:01:10;;;;;;;12.23;5.20;;;;;;;12.59;100.00;101434.06;10381511;28;20132;-63
2021/12/31 17:06:32;;;;;;;18.15;5.70;;;;;;;12.58;100.00;101431.56;10430606;28;20456;-63
2021/12/31 17:11:56;;;;;;;15.77;5.20;;;;;;;12.53;100.00;101437.06;10424938;28;20041;-65
2021/12/31 17:17:19;;;;;;;15.60;5.30;;;;;;;12.52;100.00;101437.16;10386752;28;20057;-65
2021/12/31 17:22:41;;;;;;;20.58;5.45;;;;;;;12.55;100.00;101450.88;10370524;28;20041;-64
2021/12/31 17:28:03;;;;;;;15.40;5.20;;;;;;;12.55;100.00;101458.72;10366428;28;20054;-64
2021/12/31 17:33:25;;;;;;;15.02;5.32;;;;;;;12.56;100.00;101463.03;10364852;28;20452;-64
2021/12/31 17:38:47;;;;;;;16.50;6.07;;;;;;;12.56;100.00;101464.81;10365570;28;20049;-65
2021/12/31 17:44:08;;;;;;;18.92;5.78;;;;;;;12.63;100.00;101471.31;10362088;28;20054;-65
2021/12/31 17:49:30;;;;;;;23.55;10.93;;;;;;;12.64;100.00;101476.47;10362600;28;20046;-64
2021/12/31 17:54:51;;;;;;;18.35;6.43;;;;;;;12.60;100.00;101488.06;10368648;28;20140;-64
2021/12/31 18:00:14;;;;;;;19.67;8.38;;;;;;;12.67;100.00;101491.97;10367269;28;20048;-63
2021/12/31 18:05:35;;;;;;;18.75;6.63;;;;;;;12.67;100.00;101499.81;10415899;28;20057;-65
2021/12/31 18:10:57;;;;;;;31.45;11.73;;;;;;;12.66;100.00;101513.81;10396510;28;20057;-65
2021/12/31 18:16:19;;;;;;;18.98;8.07;;;;;;;12.62;100.00;101514.97;10373976;28;20340;-64
2021/12/31 18:21:41;;;;;;;27.05;9.13;;;;;;;12.58;100.00;101521.31;10401148;28;20041;-65
2021/12/31 18:27:04;;;;;;;25.95;12.57;;;;;;;12.52;100.00;101521.69;10354692;28;20054;-65
2021/12/31 18:32:25;;;;;;;21.55;10.85;;;;;;;12.51;100.00;101534.84;10372881;28;20045;-64
2021/12/31 18:37:47;;;;;;;16.42;6.50;;;;;;;12.57;100.00;101547.56;10395008;28;20046;-65
2021/12/31 18:43:08;;;;;;;18.58;7.10;;;;;;;12.54;100.00;101545.13;10373956;28;20045;-65
2021/12/31 18:48:30;;;;;;;22.77;8.57;;;;;;;12.58;100.00;101551.88;10363449;28;20056;-66
2021/12/31 18:53:52;;;;;;;19.20;8.05;;;;;;;12.56;100.00;101567.66;10402739;28;20064;-64
2021/12/31 18:59:16;;;;;;;21.63;7.47;;;;;;;12.55;100.00;101571.19;10380025;28;20464;-64
2021/12/31 19:04:38;;;;;;;24.45;8.40;;;;;;;12.52;100.00;101557.47;10415017;28;20539;-66
2021/12/31 19:10:00;;;;;;;18.85;7.22;;;;;;;12.52;100.00;101573.97;10420018;28;20044;-64
2021/12/31 19:15:22;;;;;;;19.75;8.57;;;;;;;12.54;100.00;101584.38;10414560;28;20140;-66
2021/12/31 19:21:05;;;;;;;19.48;7.65;;;;;;;12.55;100.00;101581.66;10417361;28;20049;-64
2021/12/31 19:26:26;;;;;;;19.38;7.55;;;;;;;12.58;100.00;101586.69;10384327;28;20048;-64
2021/12/31 19:31:48;;;;;;;21.38;7.65;;;;;;;12.58;100.00;101597.16;10434014;28;20063;-64
2021/12/31 19:37:10;;;;;;;19.55;6.45;;;;;;;12.62;100.00;101589.97;10408031;28;20063;-64
2021/12/31 19:42:31;;;;;;;21.33;7.30;;;;;;;12.67;100.00;101601.00;10384495;28;20046;-66
2021/12/31 19:47:53;;;;;;;18.88;7.22;;;;;;;12.69;100.00;101605.19;10419627;28;20052;-65
2021/12/31 19:53:14;;;;;;;23.33;7.30;;;;;;;12.71;100.00;101612.97;10439160;28;20055;-65
2021/12/31 19:58:36;;;;;;;19.15;6.85;;;;;;;12.70;100.00;101622.56;10377148;28;20429;-69
2021/12/31 20:03:57;;;;;;;14.05;5.22;;;;;;;12.72;100.00;101623.34;10398943;28;20049;-66
2021/12/31 20:09:19;;;;;;;15.95;6.05;;;;;;;12.71;100.00;101628.66;10401864;28;20163;-66
2021/12/31 20:14:41;;;;;;;17.73;5.47;;;;;;;12.77;100.00;101639.59;10423524;28;20439;-65
2021/12/31 20:20:03;;;;;;;22.23;6.45;;;;;;;12.79;100.00;101660.44;10359927;28;20037;-65
2021/12/31 20:25:25;;;;;;;22.02;6.07;;;;;;;12.85;100.00;101662.69;10374268;28;20052;-65
2021/12/31 20:30:47;;;;;;;19.90;5.60;;;;;;;12.84;100.00;101663.63;10397420;28;20076;-65
2021/12/31 20:36:09;;;;;;;18.30;5.53;;;;;;;12.83;100.00;101677.63;10377188;28;20054;-63
2021/12/31 20:41:30;;;;;;;16.65;5.50;;;;;;;12.81;100.00;101685.56;10355968;28;20054;-66
2021/12/31 20:46:52;;;;;;;16.73;5.43;;;;;;;12.87;100.00;101690.44;10367324;28;20049;-63
2021/12/31 20:52:14;;;;;;;18.17;5.82;;;;;;;12.90;100.00;101697.28;10427568;28;20063;-63
2021/12/31 20:57:36;;;;;;;15.45;4.95;;;;;;;12.86;100.00;101704.44;10404161;28;20152;-63
2021/12/31 21:02:58;;;;;;;23.30;5.63;;;;;;;12.83;100.00;101699.38;10410831;28;20159;-63
2021/12/31 21:08:40;;;;;;;20.67;5.45;;;;;;;12.85;100.00;101696.69;10408408;28;20405;-63
2021/12/31 21:14:05;;;;;;;20.77;5.70;;;;;;;12.80;100.00;101699.59;10379769;28;20060;-63
2021/12/31 21:19:26;;;;;;;19.85;6.10;;;;;;;12.77;100.00;101705.00;10354640;28;20050;-63
2021/12/31 21:24:48;;;;;;;19.40;6.32;;;;;;;12.76;100.00;101719.03;10356768;28;20041;-64
2021/12/31 21:30:10;;;;;;;21.10;6.18;;;;;;;12.81;100.00;101739.69;10391368;28;20387;-63
2021/12/31 21:35:33;;;;;;;25.38;6.78;;;;;;;12.70;100.00;101755.19;10384731;28;20402;-64
2021/12/31 21:40:58;;;;;;;20.58;6.50;;;;;;;12.72;100.00;101764.59;10374389;28;20076;-63
2021/12/31 21:46:19;;;;;;;19.23;6.10;;;;;;;12.68;100.00;101757.84;10354402;28;20069;-63
2021/12/31 21:51:41;;;;;;;24.17;6.93;;;;;;;12.70;100.00;101766.47;10371116;28;20045;-63
2021/12/31 21:57:03;;;;;;;19.73;6.63;;;;;;;12.72;100.00;101766.41;10393958;28;20054;-63
2021/12/31 22:02:25;;;;;;;20.42;7.15;;;;;;;12.73;100.00;101771.53;10409862;28;20050;-64
2021/12/31 22:07:50;;;;;;;24.23;7.30;;;;;;;12.73;100.00;101782.00;10396687;28;20443;-61
2021/12/31 22:13:11;;;;;;;21.48;8.02;;;;;;;12.73;100.00;101787.22;10362272;28;20050;-63
2021/12/31 22:18:33;;;;;;;24.92;7.63;;;;;;;12.79;100.00;101792.13;10374917;28;20045;-63
2021/12/31 22:23:55;;;;;;;18.20;6.80;;;;;;;12.78;100.00;101792.19;10379148;28;20054;-63
2021/12/31 22:29:17;;;;;;;25.05;7.22;;;;;;;12.83;100.00;101803.25;10366730;28;20050;-62
2021/12/31 22:34:38;;;;;;;24.20;7.40;;;;;;;12.82;100.00;101802.38;10363071;28;20414;-65
2021/12/31 22:40:01;;;;;;;22.10;7.28;;;;;;;12.80;100.00;101814.75;10376145;28;20046;-65
2021/12/31 22:45:22;;;;;;;23.55;7.68;;;;;;;12.78;100.00;101815.72;10361316;28;20518;-65
2021/12/31 22:50:44;;;;;;;27.50;8.48;;;;;;;12.79;100.00;101813.03;10394749;28;20045;-66
2021/12/31 22:56:09;;;;;;;26.73;8.30;;;;;;;12.78;100.00;101827.06;10402572;28;20060;-65
2021/12/31 23:01:31;;;;;;;21.97;7.80;;;;;;;12.83;100.00;101825.00;10421278;28;20041;-65
2021/12/31 23:06:52;;;;;;;32.58;15.55;;;;;;;12.82;100.00;101822.47;10404986;28;20068;-65
2021/12/31 23:12:16;;;;;;;47.28;18.80;;;;;;;12.82;100.00;101833.78;10358328;28;20138;-65
2021/12/31 23:17:38;;;;;;;34.08;16.33;;;;;;;12.79;100.00;101828.75;10377567;28;20502;-64
2021/12/31 23:23:00;;;;;;;40.67;17.85;;;;;;;12.80;100.00;101824.34;10359214;28;20521;-65
2021/12/31 23:28:21;;;;;;;30.73;17.42;;;;;;;12.79;100.00;101839.22;10372448;28;20059;-65
2021/12/31 23:33:43;;;;;;;33.00;13.82;;;;;;;12.80;100.00;101855.75;10391665;28;20064;-65
2021/12/31 23:39:08;;;;;;;34.42;12.32;;;;;;;12.84;100.00;101859.88;10412653;28;20524;-63
2021/12/31 23:44:29;;;;;;;25.95;11.07;;;;;;;12.80;100.00;101855.75;10398135;28;20555;-64
2021/12/31 23:49:51;;;;;;;34.40;11.73;;;;;;;12.80;100.00;101860.97;10411005;28;20049;-65
2021/12/31 23:55:13;;;;;;;28.27;11.43;;;;;;;12.82;100.00;101859.13;10405682;28;20078;-65
